Time;durP1;ratioP1;P1;durP2;ratioP2;P2;SDS_P1;SDS_P2;PMS_P1;PMS_P2;Temp;Humidity;BMP_temperature;BMP_pressure;BME280_temperature;BME280_humidity;BME280_pressure;Samples;Min_cycle;Max_cycle;Signal;HPM_P1;HPM_P2
2022/04/17 00:00:05;;;;;;;8.85;6.30;;;;;;;;;;5112697;28;20039;-64
2022/04/17 00:02:31;;;;;;;9.07;6.25;;;;;;;;;;5102094;28;20039;-64
2022/04/17 00:04:57;;;;;;;7.85;5.63;;;;;;;;;;5100881;28;20040;-64
2022/04/17 00:07:23;;;;;;;10.50;6.55;;;;;;;;;;5109675;28;20047;-64
2022/04/17 00:09:49;;;;;;;8.48;6.25;;;;;;;;;;5110740;28;20032;-64
2022/04/17 00:12:15;;;;;;;11.13;6.70;;;;;;;;;;5098746;28;20032;-64
2022/04/17 00:14:43;;;;;;;10.20;6.43;;;;;;;;;;5112451;28;20122;-64
2022/04/17 00:17:11;;;;;;;8.18;6.13;;;;;;;;;;5095700;28;20039;-64
2022/04/17 00:19:38;;;;;;;10.02;6.50;;;;;;;;;;5092903;28;20032;-64
2022/04/17 00:22:04;;;;;;;10.55;6.40;;;;;;;;;;5098412;28;20092;-64
2022/04/17 00:24:30;;;;;;;9.88;6.55;;;;;;;;;;5111514;28;20032;-64
2022/04/17 00:26:57;;;;;;;9.35;6.70;;;;;;;;;;5104671;28;20093;-64
2022/04/17 00:29:23;;;;;;;11.70;6.68;;;;;;;;;;5111263;28;20100;-64
2022/04/17 00:31:49;;;;;;;12.15;6.40;;;;;;;;;;5125364;22;20040;-64
2022/04/17 00:34:16;;;;;;;9.35;6.50;;;;;;;;;;5112276;28;20062;-63
2022/04/17 00:36:42;;;;;;;11.48;7.00;;;;;;;;;;5125089;27;20125;-63
2022/04/17 00:39:08;;;;;;;14.90;6.95;;;;;;;;;;5111133;27;20047;-63
2022/04/17 00:41:34;;;;;;;9.23;6.57;;;;;;;;;;5110826;28;20117;-63
2022/04/17 00:44:00;;;;;;;10.45;6.85;;;;;;;;;;5112716;28;20039;-63
2022/04/17 00:46:26;;;;;;;10.02;6.60;;;;;;;;;;5111303;28;20032;-64
2022/04/17 00:48:52;;;;;;;10.45;6.72;;;;;;;;;;5111016;28;20424;-64
2022/04/17 00:51:18;;;;;;;9.73;7.22;;;;;;;;;;5092619;28;20043;-63
2022/04/17 00:53:45;;;;;;;9.82;6.97;;;;;;;;;;5111715;28;20032;-63
2022/04/17 00:56:11;;;;;;;9.93;7.07;;;;;;;;;;5099622;28;20091;-63
2022/04/17 00:58:38;;;;;;;10.10;7.32;;;;;;;;;;5092324;28;20039;-63
2022/04/17 01:01:04;;;;;;;10.75;7.03;;;;;;;;;;5110495;28;20040;-63
2022/04/17 01:03:30;;;;;;;9.32;7.18;;;;;;;;;;5091259;28;20047;-63
2022/04/17 01:05:56;;;;;;;12.13;7.22;;;;;;;;;;5112039;28;20043;-63
2022/04/17 01:08:22;;;;;;;10.32;7.13;;;;;;;;;;5109969;28;20096;-63
2022/04/17 01:10:48;;;;;;;13.98;7.70;;;;;;;;;;5111934;28;20047;-63
2022/04/17 01:13:14;;;;;;;9.40;7.35;;;;;;;;;;5110642;28;20122;-63
2022/04/17 01:15:40;;;;;;;12.52;7.47;;;;;;;;;;5112547;28;20036;-63
2022/04/17 01:18:06;;;;;;;12.02;7.45;;;;;;;;;;5109894;28;20517;-63
2022/04/17 01:20:32;;;;;;;10.40;7.78;;;;;;;;;;5110779;28;20048;-63
2022/04/17 01:28:28;;;;;;;13.13;7.45;;;;;;;;;;5091213;28;20052;-63
2022/04/17 01:30:54;;;;;;;9.73;8.18;;;;;;;;;;5110833;28;20143;-63
2022/04/17 01:33:20;;;;;;;11.80;7.53;;;;;;;;;;5090683;28;20492;-63
2022/04/17 01:35:46;;;;;;;11.77;7.68;;;;;;;;;;5092291;28;20074;-63
2022/04/17 01:38:12;;;;;;;10.10;7.38;;;;;;;;;;5110082;28;20489;-63
2022/04/17 01:40:38;;;;;;;10.65;7.65;;;;;;;;;;5111411;28;20130;-63
2022/04/17 01:43:11;;;;;;;10.93;7.68;;;;;;;;;;5110701;28;20032;-63
2022/04/17 01:45:37;;;;;;;10.07;7.90;;;;;;;;;;5110534;28;20035;-63
2022/04/17 01:48:04;;;;;;;11.60;8.00;;;;;;;;;;5110619;28;20035;-63
2022/04/17 01:50:30;;;;;;;11.02;7.57;;;;;;;;;;5101671;28;20126;-63
2022/04/17 01:53:00;;;;;;;9.15;7.18;;;;;;;;;;5102289;28;20036;-63
2022/04/17 01:55:27;;;;;;;10.57;7.53;;;;;;;;;;5109455;28;20059;-63
2022/04/17 01:57:53;;;;;;;10.90;7.75;;;;;;;;;;5107394;28;20084;-63
2022/04/17 02:00:19;;;;;;;11.65;8.02;;;;;;;;;;5109560;28;20058;-63
2022/04/17 02:02:45;;;;;;;8.88;7.32;;;;;;;;;;5100031;28;20524;-63
2022/04/17 02:05:11;;;;;;;11.32;8.13;;;;;;;;;;5110604;28;20089;-63
2022/04/17 02:07:37;;;;;;;12.20;8.32;;;;;;;;;;5110887;28;20560;-63
2022/04/17 02:10:04;;;;;;;10.57;7.38;;;;;;;;;;5094565;28;20070;-63
2022/04/17 02:12:30;;;;;;;10.82;7.38;;;;;;;;;;5114639;28;20043;-63
2022/04/17 02:14:56;;;;;;;11.35;7.72;;;;;;;;;;5112030;28;20122;-63
2022/04/17 02:17:22;;;;;;;13.23;7.93;;;;;;;;;;5113336;28;20157;-63
2022/04/17 02:19:48;;;;;;;10.60;7.90;;;;;;;;;;5114977;28;20035;-63
2022/04/17 02:22:14;;;;;;;11.32;7.43;;;;;;;;;;5113726;28;20036;-63
2022/04/17 02:24:40;;;;;;;12.45;8.57;;;;;;;;;;5113250;28;20043;-63
2022/04/17 02:27:06;;;;;;;13.65;8.23;;;;;;;;;;5096618;28;20035;-63
2022/04/17 02:29:33;;;;;;;10.38;7.47;;;;;;;;;;5114493;28;20479;-63
2022/04/17 02:31:59;;;;;;;11.90;7.72;;;;;;;;;;5094217;28;20044;-63
2022/04/17 02:34:25;;;;;;;10.63;8.23;;;;;;;;;;5112867;28;20453;-63
2022/04/17 02:36:51;;;;;;;11.40;7.55;;;;;;;;;;5114569;28;20035;-63
2022/04/17 02:39:17;;;;;;;10.27;7.72;;;;;;;;;;5095759;28;20055;-63
2022/04/17 02:41:42;;;;;;;10.70;8.18;;;;;;;;;;5112945;28;20039;-63
2022/04/17 02:44:08;;;;;;;10.55;8.18;;;;;;;;;;5112446;28;20497;-63
2022/04/17 02:49:19;;;;;;;10.95;8.55;;;;;;;;;;5112080;28;20043;-63
2022/04/17 02:51:45;;;;;;;13.75;9.63;;;;;;;;;;5104726;28;20036;-63
2022/04/17 02:54:11;;;;;;;13.32;9.27;;;;;;;;;;5112669;28;20590;-63
2022/04/17 02:56:37;;;;;;;12.60;8.77;;;;;;;;;;5114563;28;20548;-63
2022/04/17 02:59:03;;;;;;;11.10;8.52;;;;;;;;;;5113316;28;20401;-63
2022/04/17 03:06:58;;;;;;;11.88;8.70;;;;;;;;;;5114388;28;20122;-63
2022/04/17 03:09:24;;;;;;;12.38;8.35;;;;;;;;;;5113939;28;20119;-63
2022/04/17 03:11:50;;;;;;;11.65;7.57;;;;;;;;;;5113642;28;20100;-63
2022/04/17 03:14:16;;;;;;;10.63;7.68;;;;;;;;;;5110596;28;20043;-63
2022/04/17 03:16:43;;;;;;;11.95;7.80;;;;;;;;;;5114095;28;20060;-63
2022/04/17 03:19:09;;;;;;;11.07;8.07;;;;;;;;;;5114399;28;20074;-63
2022/04/17 03:21:35;;;;;;;10.30;7.97;;;;;;;;;;5112129;28;20039;-63
2022/04/17 03:24:01;;;;;;;10.80;8.52;;;;;;;;;;5111151;28;20035;-63
2022/04/17 03:26:27;;;;;;;14.20;9.15;;;;;;;;;;5113535;28;20401;-63
2022/04/17 03:28:55;;;;;;;13.82;8.48;;;;;;;;;;5111617;28;20044;-63
2022/04/17 03:31:21;;;;;;;11.40;8.50;;;;;;;;;;5112466;28;20054;-63
2022/04/17 03:33:47;;;;;;;13.63;8.93;;;;;;;;;;5111583;28;20464;-63
2022/04/17 03:36:13;;;;;;;12.15;8.65;;;;;;;;;;5113579;28;20035;-63
2022/04/17 03:38:39;;;;;;;13.73;8.98;;;;;;;;;;5104691;28;20036;-63
2022/04/17 03:41:05;;;;;;;13.05;8.25;;;;;;;;;;5113403;28;20043;-63
2022/04/17 03:43:31;;;;;;;12.75;8.30;;;;;;;;;;5092529;28;20046;-63
2022/04/17 03:45:58;;;;;;;11.75;8.68;;;;;;;;;;5112077;28;20071;-63
2022/04/17 03:48:25;;;;;;;11.40;9.05;;;;;;;;;;5111988;28;20040;-63
2022/04/17 03:50:51;;;;;;;11.70;8.85;;;;;;;;;;5113128;28;20528;-63
2022/04/17 03:53:17;;;;;;;11.45;8.38;;;;;;;;;;5090608;28;20040;-63
2022/04/17 03:55:43;;;;;;;12.65;8.90;;;;;;;;;;5111627;28;20396;-63
2022/04/17 03:58:09;;;;;;;12.75;8.85;;;;;;;;;;5103734;28;20032;-63
2022/04/17 04:00:34;;;;;;;9.95;8.23;;;;;;;;;;5109279;28;20090;-63
2022/04/17 04:03:01;;;;;;;12.70;7.88;;;;;;;;;;5112629;27;20035;-63
2022/04/17 04:05:27;;;;;;;11.57;7.95;;;;;;;;;;5111380;28;20050;-63
2022/04/17 04:07:53;;;;;;;11.43;8.45;;;;;;;;;;5110664;28;20107;-63
2022/04/17 04:10:19;;;;;;;13.85;8.63;;;;;;;;;;5112799;28;20528;-63
2022/04/17 04:12:45;;;;;;;11.45;8.73;;;;;;;;;;5110441;28;20036;-63
2022/04/17 04:15:11;;;;;;;11.60;8.10;;;;;;;;;;5109517;28;20048;-63
2022/04/17 04:17:37;;;;;;;11.68;8.25;;;;;;;;;;5105724;28;20042;-62
2022/04/17 04:20:03;;;;;;;12.52;8.75;;;;;;;;;;5105288;28;20036;-63
2022/04/17 04:22:29;;;;;;;13.27;9.45;;;;;;;;;;5111206;28;20054;-63
2022/04/17 04:24:55;;;;;;;14.25;8.82;;;;;;;;;;5112752;28;20039;-63
2022/04/17 04:30:06;;;;;;;13.13;8.65;;;;;;;;;;5112065;28;20071;-63
2022/04/17 04:32:32;;;;;;;11.30;8.40;;;;;;;;;;5111566;28;20501;-62
2022/04/17 04:34:59;;;;;;;13.98;8.85;;;;;;;;;;5110597;28;20039;-62
2022/04/17 04:37:25;;;;;;;13.98;9.32;;;;;;;;;;5112885;28;20096;-63
2022/04/17 04:39:51;;;;;;;14.20;9.23;;;;;;;;;;5111861;28;20032;-63
2022/04/17 04:42:17;;;;;;;14.65;8.90;;;;;;;;;;5111877;28;20036;-62
2022/04/17 04:44:43;;;;;;;12.63;8.80;;;;;;;;;;5112694;28;20031;-63
2022/04/17 04:47:09;;;;;;;13.80;8.88;;;;;;;;;;5111889;28;20523;-63
2022/04/17 04:49:35;;;;;;;14.82;9.10;;;;;;;;;;5110029;28;20067;-62
2022/04/17 04:52:02;;;;;;;13.70;8.77;;;;;;;;;;5112023;28;20044;-62
2022/04/17 04:54:29;;;;;;;12.60;9.40;;;;;;;;;;5109684;28;20031;-63
2022/04/17 04:56:55;;;;;;;18.10;10.18;;;;;;;;;;5089556;28;20036;-63
2022/04/17 04:59:21;;;;;;;12.75;9.30;;;;;;;;;;5109981;28;20553;-63
2022/04/17 05:01:48;;;;;;;14.77;9.48;;;;;;;;;;5111341;28;20776;-63
2022/04/17 05:04:17;;;;;;;15.68;9.50;;;;;;;;;;5109668;28;20035;-63
2022/04/17 05:06:43;;;;;;;14.07;8.35;;;;;;;;;;5105963;28;20047;-63
2022/04/17 05:09:09;;;;;;;17.10;9.38;;;;;;;;;;5111607;28;20428;-63
2022/04/17 05:11:37;;;;;;;12.50;9.30;;;;;;;;;;5110095;28;20055;-63
2022/04/17 05:14:04;;;;;;;13.80;9.52;;;;;;;;;;5111912;28;20038;-63
2022/04/17 05:16:30;;;;;;;12.82;9.60;;;;;;;;;;5111704;28;20040;-63
2022/04/17 05:19:18;;;;;;;13.98;8.98;;;;;;;;;;5109666;28;20028;-63
2022/04/17 05:21:42;;;;;;;16.33;9.52;;;;;;;;;;5110051;28;20400;-63
2022/04/17 05:24:08;;;;;;;13.13;9.63;;;;;;;;;;5112232;28;20035;-63
2022/04/17 05:26:34;;;;;;;13.93;9.60;;;;;;;;;;5096134;28;20134;-63
2022/04/17 05:29:02;;;;;;;12.45;9.18;;;;;;;;;;5110658;28;20118;-63
2022/04/17 05:31:28;;;;;;;14.95;9.45;;;;;;;;;;5107444;28;20039;-63
2022/04/17 05:33:55;;;;;;;13.80;8.95;;;;;;;;;;5105343;28;20063;-63
2022/04/17 05:36:21;;;;;;;14.93;9.50;;;;;;;;;;5111961;28;20036;-62
2022/04/17 05:38:47;;;;;;;14.75;9.40;;;;;;;;;;5093348;28;20039;-63
2022/04/17 05:41:14;;;;;;;14.90;9.65;;;;;;;;;;5109060;28;20505;-63
2022/04/17 05:43:40;;;;;;;16.48;10.73;;;;;;;;;;5093283;28;20047;-63
2022/04/17 05:46:06;;;;;;;14.30;9.73;;;;;;;;;;5111913;28;20036;-63
2022/04/17 05:48:34;;;;;;;14.35;10.02;;;;;;;;;;5106083;28;20066;-63
2022/04/17 05:51:00;;;;;;;13.25;9.20;;;;;;;;;;5114745;28;20079;-62
2022/04/17 05:53:26;;;;;;;14.70;9.88;;;;;;;;;;5115973;28;20385;-63
2022/04/17 05:55:52;;;;;;;17.70;10.05;;;;;;;;;;5113796;28;20039;-63
2022/04/17 05:58:17;;;;;;;15.18;10.15;;;;;;;;;;5097467;28;20035;-62
2022/04/17 06:00:44;;;;;;;17.48;11.73;;;;;;;;;;5111762;28;20037;-63
2022/04/17 06:03:10;;;;;;;17.35;11.05;;;;;;;;;;5114910;28;20531;-63
2022/04/17 06:05:36;;;;;;;17.27;12.82;;;;;;;;;;5115506;28;20040;-62
2022/04/17 06:08:02;;;;;;;15.20;10.75;;;;;;;;;;5114874;28;20036;-62
2022/04/17 06:10:28;;;;;;;15.65;10.98;;;;;;;;;;5104903;28;20119;-62
2022/04/17 06:12:54;;;;;;;16.88;11.30;;;;;;;;;;5113922;28;20027;-62
2022/04/17 06:15:20;;;;;;;18.52;13.02;;;;;;;;;;5114411;28;20044;-62
2022/04/17 06:17:46;;;;;;;18.30;12.35;;;;;;;;;;5096706;28;20035;-63
2022/04/17 06:20:14;;;;;;;16.98;11.52;;;;;;;;;;5114184;28;20070;-62
2022/04/17 06:22:41;;;;;;;18.27;12.13;;;;;;;;;;5114215;28;20040;-63
2022/04/17 06:25:08;;;;;;;17.58;11.50;;;;;;;;;;5113896;28;20031;-63
2022/04/17 06:27:37;;;;;;;16.05;11.32;;;;;;;;;;5112559;28;20031;-63
2022/04/17 06:30:07;;;;;;;16.92;11.32;;;;;;;;;;5111515;28;20039;-63
2022/04/17 06:32:34;;;;;;;17.92;10.90;;;;;;;;;;5100986;22;20035;-63
2022/04/17 06:35:00;;;;;;;13.90;10.68;;;;;;;;;;5083082;28;20063;-63
2022/04/17 06:37:26;;;;;;;13.82;10.73;;;;;;;;;;5097859;28;20466;-63
2022/04/17 06:39:52;;;;;;;14.70;10.88;;;;;;;;;;5096502;28;20119;-63
2022/04/17 06:42:18;;;;;;;15.80;10.90;;;;;;;;;;5098121;28;20042;-63
2022/04/17 06:44:44;;;;;;;17.50;11.05;;;;;;;;;;5094688;28;20040;-63
2022/04/17 06:47:10;;;;;;;17.13;11.07;;;;;;;;;;5085227;28;20036;-63
2022/04/17 06:49:36;;;;;;;16.70;10.88;;;;;;;;;;5094561;28;20071;-63
2022/04/17 06:52:02;;;;;;;18.13;10.93;;;;;;;;;;5093963;28;20477;-63
2022/04/17 06:54:27;;;;;;;13.02;10.38;;;;;;;;;;5103657;28;20401;-63
2022/04/17 06:56:53;;;;;;;15.10;10.38;;;;;;;;;;5093776;28;20036;-63
2022/04/17 06:59:19;;;;;;;15.98;10.82;;;;;;;;;;5090854;28;20068;-63
2022/04/17 07:01:45;;;;;;;15.95;11.25;;;;;;;;;;5095848;28;20051;-63
2022/04/17 07:04:11;;;;;;;15.35;11.05;;;;;;;;;;5094259;28;20079;-63
2022/04/17 07:06:37;;;;;;;16.98;11.20;;;;;;;;;;5098855;28;20474;-63
2022/04/17 07:09:03;;;;;;;17.55;11.45;;;;;;;;;;5091984;28;20122;-64
2022/04/17 07:11:30;;;;;;;12.77;9.15;;;;;;;;;;5090199;28;20043;-63
2022/04/17 07:13:57;;;;;;;23.75;13.50;;;;;;;;;;5100911;28;20039;-63
2022/04/17 07:16:23;;;;;;;15.35;10.73;;;;;;;;;;5092360;28;20049;-63
2022/04/17 07:18:49;;;;;;;23.17;11.60;;;;;;;;;;5097940;28;20119;-64
2022/04/17 07:21:16;;;;;;;12.95;9.93;;;;;;;;;;5090227;28;20545;-64
2022/04/17 07:23:43;;;;;;;18.10;10.60;;;;;;;;;;5102747;28;20096;-64
2022/04/17 07:26:09;;;;;;;16.35;11.45;;;;;;;;;;5102694;28;20052;-63
2022/04/17 07:28:37;;;;;;;13.73;10.57;;;;;;;;;;5094000;28;20378;-63
2022/04/17 07:31:03;;;;;;;16.23;10.50;;;;;;;;;;5097343;28;20052;-63
2022/04/17 07:33:29;;;;;;;12.65;9.32;;;;;;;;;;5091971;28;20613;-63
2022/04/17 07:35:55;;;;;;;14.20;9.75;;;;;;;;;;5072314;28;20123;-64
2022/04/17 07:38:21;;;;;;;16.02;10.10;;;;;;;;;;5097317;28;20035;-64
2022/04/17 07:40:47;;;;;;;17.25;9.98;;;;;;;;;;5096002;28;20035;-63
2022/04/17 07:43:13;;;;;;;12.65;9.02;;;;;;;;;;5092733;28;20044;-64
2022/04/17 07:45:39;;;;;;;13.15;8.57;;;;;;;;;;5092379;28;20040;-64
2022/04/17 07:48:05;;;;;;;11.98;8.18;;;;;;;;;;5089392;28;20036;-62
2022/04/17 07:50:31;;;;;;;13.85;8.13;;;;;;;;;;5092612;28;20489;-63
2022/04/17 07:52:58;;;;;;;10.55;8.20;;;;;;;;;;5098101;28;20124;-63
2022/04/17 07:55:24;;;;;;;10.93;7.97;;;;;;;;;;5091007;28;20055;-63
2022/04/17 08:00:47;;;;;;;10.95;7.97;;;;;;;;;;5088037;28;20047;-63
2022/04/17 08:03:20;;;;;;;13.80;8.45;;;;;;;;;;5089493;28;20111;-63
2022/04/17 08:05:47;;;;;;;11.55;7.88;;;;;;;;;;5090129;28;20367;-63
2022/04/17 08:08:13;;;;;;;12.80;8.05;;;;;;;;;;5091507;28;20084;-63
2022/04/17 08:10:39;;;;;;;11.35;7.43;;;;;;;;;;5090403;28;20409;-62
2022/04/17 08:13:05;;;;;;;10.07;7.97;;;;;;;;;;5084564;28;20486;-63
2022/04/17 08:15:32;;;;;;;10.82;7.55;;;;;;;;;;5095744;28;20454;-63
2022/04/17 08:17:58;;;;;;;11.35;7.75;;;;;;;;;;5090645;28;20101;-63
2022/04/17 08:20:24;;;;;;;11.52;7.22;;;;;;;;;;5088616;28;20443;-63
2022/04/17 08:22:50;;;;;;;9.70;6.65;;;;;;;;;;5094092;28;20043;-63
2022/04/17 08:25:16;;;;;;;9.77;7.10;;;;;;;;;;5096303;28;20047;-63
2022/04/17 08:27:46;;;;;;;9.45;6.68;;;;;;;;;;5090008;28;20382;-63
2022/04/17 08:30:12;;;;;;;9.48;7.00;;;;;;;;;;5088585;28;20044;-63
2022/04/17 08:32:38;;;;;;;9.65;6.72;;;;;;;;;;5071603;28;20516;-63
2022/04/17 08:35:06;;;;;;;7.70;5.97;;;;;;;;;;5079390;28;20041;-62
2022/04/17 08:37:31;;;;;;;10.05;6.63;;;;;;;;;;5088278;28;20040;-64
2022/04/17 08:39:57;;;;;;;10.30;6.95;;;;;;;;;;5081482;28;20593;-62
2022/04/17 08:42:26;;;;;;;8.90;6.00;;;;;;;;;;5079842;28;20040;-63
2022/04/17 08:44:52;;;;;;;9.25;6.63;;;;;;;;;;5090754;28;20032;-63
2022/04/17 08:47:19;;;;;;;9.32;6.97;;;;;;;;;;5087609;28;20089;-63
2022/04/17 08:49:45;;;;;;;9.48;6.43;;;;;;;;;;5083542;28;20036;-62
2022/04/17 08:52:15;;;;;;;10.63;7.00;;;;;;;;;;5086915;28;20131;-63
2022/04/17 08:54:42;;;;;;;8.25;6.90;;;;;;;;;;5080639;28;20497;-64
2022/04/17 08:57:08;;;;;;;9.48;6.63;;;;;;;;;;5079051;28;20028;-64
2022/04/17 08:59:34;;;;;;;10.55;6.75;;;;;;;;;;5088445;28;20039;-63
2022/04/17 09:02:07;;;;;;;9.30;6.60;;;;;;;;;;5077213;28;20065;-63
2022/04/17 09:04:34;;;;;;;8.18;6.25;;;;;;;;;;5084826;28;20044;-64
2022/04/17 09:07:01;;;;;;;10.40;6.60;;;;;;;;;;5093330;28;20036;-63
2022/04/17 09:09:28;;;;;;;10.15;7.00;;;;;;;;;;5090475;28;20047;-64
2022/04/17 09:11:57;;;;;;;9.52;6.25;;;;;;;;;;5083623;28;20036;-64
2022/04/17 09:14:23;;;;;;;13.00;7.07;;;;;;;;;;5085016;28;20136;-65
2022/04/17 09:16:52;;;;;;;8.43;6.35;;;;;;;;;;5088357;28;20115;-64
2022/04/17 09:19:19;;;;;;;10.32;5.88;;;;;;;;;;5077915;28;20058;-64
2022/04/17 09:21:45;;;;;;;9.02;6.13;;;;;;;;;;5076186;28;20050;-64
2022/04/17 09:24:15;;;;;;;9.05;6.28;;;;;;;;;;5088912;28;20043;-64
2022/04/17 09:26:50;;;;;;;10.10;6.72;;;;;;;;;;5082239;28;20048;-64
2022/04/17 09:29:21;;;;;;;8.15;6.30;;;;;;;;;;5092897;28;20051;-65
2022/04/17 09:31:47;;;;;;;9.50;6.13;;;;;;;;;;5093065;28;20040;-64
2022/04/17 09:34:15;;;;;;;9.00;6.03;;;;;;;;;;5086996;28;20043;-64
2022/04/17 09:36:41;;;;;;;9.90;6.13;;;;;;;;;;5085170;28;20071;-63
2022/04/17 09:39:14;;;;;;;8.07;6.03;;;;;;;;;;5091886;28;20039;-63
2022/04/17 09:41:56;;;;;;;7.13;6.30;;;;;;;;;;5089575;28;20050;-64
2022/04/17 09:44:34;;;;;;;8.02;5.82;;;;;;;;;;5090276;28;20500;-63
2022/04/17 09:47:00;;;;;;;6.38;5.38;;;;;;;;;;5083639;28;20055;-63
2022/04/17 09:49:26;;;;;;;7.55;5.30;;;;;;;;;;5096291;28;20036;-64
2022/04/17 09:52:09;;;;;;;7.50;5.30;;;;;;;;;;5087550;28;20089;-64
2022/04/17 09:54:35;;;;;;;10.20;6.32;;;;;;;;;;5087404;28;20561;-64
2022/04/17 09:57:01;;;;;;;6.57;5.45;;;;;;;;;;5086895;28;20024;-64
2022/04/17 09:59:27;;;;;;;6.90;5.15;;;;;;;;;;5090872;28;20089;-64
2022/04/17 10:01:57;;;;;;;7.10;5.50;;;;;;;;;;5090412;28;20032;-64
2022/04/17 10:04:24;;;;;;;9.73;6.35;;;;;;;;;;5093025;28;20703;-64
2022/04/17 10:06:51;;;;;;;7.10;6.03;;;;;;;;;;5090151;28;20397;-63
2022/04/17 10:09:17;;;;;;;6.97;5.70;;;;;;;;;;5085108;28;20564;-64
2022/04/17 10:11:43;;;;;;;8.10;5.53;;;;;;;;;;5095119;28;20037;-64
2022/04/17 10:14:10;;;;;;;7.68;5.70;;;;;;;;;;5089428;28;20032;-63
2022/04/17 10:16:40;;;;;;;7.75;6.00;;;;;;;;;;5087655;28;20039;-63
2022/04/17 10:19:07;;;;;;;8.65;5.90;;;;;;;;;;5093375;28;20039;-63
2022/04/17 10:21:36;;;;;;;10.23;5.85;;;;;;;;;;5092475;28;20036;-63
2022/04/17 10:24:04;;;;;;;7.70;5.95;;;;;;;;;;5077627;28;20036;-61
2022/04/17 10:26:32;;;;;;;8.20;5.70;;;;;;;;;;5088290;28;20043;-61
2022/04/17 10:28:59;;;;;;;9.05;5.43;;;;;;;;;;5087779;28;20044;-61
2022/04/17 10:31:32;;;;;;;8.18;5.38;;;;;;;;;;5087460;28;20040;-62
2022/04/17 10:33:58;;;;;;;9.10;5.68;;;;;;;;;;5089333;28;20041;-62
2022/04/17 10:36:30;;;;;;;7.47;4.97;;;;;;;;;;5084604;28;20497;-62
2022/04/17 10:38:57;;;;;;;5.78;4.82;;;;;;;;;;5077891;28;20036;-62
2022/04/17 10:41:23;;;;;;;7.80;4.70;;;;;;;;;;5090794;28;20088;-63
2022/04/17 10:43:50;;;;;;;6.07;4.90;;;;;;;;;;5082201;28;20525;-64
2022/04/17 10:46:16;;;;;;;7.28;5.00;;;;;;;;;;5092110;28;20521;-63
2022/04/17 10:48:54;;;;;;;6.97;4.22;;;;;;;;;;5090711;28;20035;-63
2022/04/17 10:51:27;;;;;;;7.40;4.07;;;;;;;;;;5083369;28;20047;-64
2022/04/17 10:53:53;;;;;;;7.07;3.85;;;;;;;;;;5082177;28;20079;-63
2022/04/17 10:56:20;;;;;;;5.50;3.72;;;;;;;;;;5088966;28;20446;-63
2022/04/17 10:58:55;;;;;;;5.20;4.47;;;;;;;;;;5095018;28;20047;-63
2022/04/17 11:01:40;;;;;;;5.88;4.00;;;;;;;;;;5100358;28;20075;-64
2022/04/17 11:04:18;;;;;;;6.70;4.70;;;;;;;;;;5082484;28;20051;-63
2022/04/17 11:06:45;;;;;;;7.50;4.28;;;;;;;;;;5096808;28;20028;-63
2022/04/17 11:09:15;;;;;;;7.97;4.40;;;;;;;;;;5096432;28;20040;-64
2022/04/17 11:11:45;;;;;;;6.10;4.88;;;;;;;;;;5090357;28;20040;-64
2022/04/17 11:14:17;;;;;;;6.43;4.78;;;;;;;;;;5087980;28;20505;-64
2022/04/17 11:16:48;;;;;;;6.43;4.68;;;;;;;;;;5080947;28;20044;-63
2022/04/17 11:19:16;;;;;;;7.65;5.10;;;;;;;;;;5091877;28;20078;-63
2022/04/17 11:21:52;;;;;;;6.88;4.85;;;;;;;;;;5083902;28;20044;-63
2022/04/17 11:24:19;;;;;;;6.35;4.68;;;;;;;;;;5087827;28;20047;-63
2022/04/17 11:27:09;;;;;;;6.13;4.68;;;;;;;;;;5081284;28;20047;-63
2022/04/17 11:29:39;;;;;;;8.52;5.47;;;;;;;;;;5072049;28;20127;-63
2022/04/17 11:32:17;;;;;;;5.77;5.10;;;;;;;;;;5086140;28;20127;-63
2022/04/17 11:34:46;;;;;;;6.65;5.40;;;;;;;;;;5084717;28;20290;-64
2022/04/17 11:37:12;;;;;;;7.32;5.20;;;;;;;;;;5097459;28;20063;-63
2022/04/17 11:39:38;;;;;;;6.30;4.90;;;;;;;;;;5097642;28;20055;-63
2022/04/17 11:42:06;;;;;;;8.48;5.68;;;;;;;;;;5095989;28;20541;-63
2022/04/17 11:44:33;;;;;;;9.05;6.05;;;;;;;;;;5091858;28;20036;-63
2022/04/17 11:46:59;;;;;;;7.97;5.70;;;;;;;;;;5087154;28;20463;-63
2022/04/17 11:49:25;;;;;;;7.43;5.78;;;;;;;;;;5089769;28;20032;-63
2022/04/17 11:51:51;;;;;;;6.75;5.18;;;;;;;;;;5096414;28;20035;-63
2022/04/17 11:54:30;;;;;;;6.85;5.47;;;;;;;;;;5082738;28;20037;-63
2022/04/17 11:56:56;;;;;;;7.25;5.50;;;;;;;;;;5079626;28;20150;-63
2022/04/17 11:59:23;;;;;;;7.63;5.90;;;;;;;;;;5098710;28;20044;-63
2022/04/17 12:02:08;;;;;;;8.30;6.00;;;;;;;;;;5088476;28;20036;-63
2022/04/17 12:04:34;;;;;;;9.02;6.05;;;;;;;;;;5084349;28;20035;-63
2022/04/17 12:07:00;;;;;;;6.63;5.07;;;;;;;;;;5073728;28;20040;-63
2022/04/17 12:09:26;;;;;;;8.40;5.63;;;;;;;;;;5084540;28;20078;-63
2022/04/17 12:11:52;;;;;;;8.30;5.40;;;;;;;;;;5090642;28;20068;-63
2022/04/17 12:14:31;;;;;;;7.35;5.07;;;;;;;;;;5088879;28;20523;-63
2022/04/17 12:16:57;;;;;;;7.80;5.60;;;;;;;;;;5076746;28;20040;-63
2022/04/17 12:19:27;;;;;;;9.38;5.40;;;;;;;;;;5082481;28;20040;-63
2022/04/17 12:21:53;;;;;;;8.48;5.82;;;;;;;;;;5090540;28;20043;-63
2022/04/17 12:24:21;;;;;;;5.63;4.78;;;;;;;;;;5082224;28;20037;-63
2022/04/17 12:26:48;;;;;;;8.80;5.70;;;;;;;;;;5089015;28;20047;-63
2022/04/17 12:29:15;;;;;;;9.90;6.15;;;;;;;;;;5095438;28;20500;-63
2022/04/17 12:31:41;;;;;;;9.60;6.13;;;;;;;;;;5083523;28;20401;-63
2022/04/17 12:34:08;;;;;;;8.57;5.78;;;;;;;;;;5124007;22;20039;-67
2022/04/17 12:36:37;;;;;;;7.78;5.88;;;;;;;;;;5128711;27;20033;-66
2022/04/17 12:39:04;;;;;;;7.72;6.35;;;;;;;;;;5131533;27;20039;-66
2022/04/17 12:41:37;;;;;;;9.48;6.07;;;;;;;;;;5131495;27;20408;-67
2022/04/17 12:44:03;;;;;;;7.47;5.45;;;;;;;;;;5131702;27;20046;-66
2022/04/17 12:46:33;;;;;;;9.57;5.55;;;;;;;;;;5131198;27;20039;-66
2022/04/17 12:49:06;;;;;;;8.13;5.55;;;;;;;;;;5127282;27;20051;-66
2022/04/17 12:51:32;;;;;;;8.27;6.15;;;;;;;;;;5117656;27;20042;-66
2022/04/17 12:53:58;;;;;;;6.97;5.25;;;;;;;;;;5130935;27;20037;-66
2022/04/17 12:56:27;;;;;;;8.25;5.45;;;;;;;;;;5124984;27;20118;-66
2022/04/17 12:58:55;;;;;;;9.35;5.60;;;;;;;;;;5132143;27;20046;-67
2022/04/17 13:01:22;;;;;;;7.85;5.68;;;;;;;;;;5130530;27;20043;-67
2022/04/17 13:03:49;;;;;;;8.48;6.05;;;;;;;;;;5129251;27;20386;-67
2022/04/17 13:06:23;;;;;;;8.43;5.38;;;;;;;;;;5126515;27;20039;-67
2022/04/17 13:09:23;;;;;;;6.82;5.03;;;;;;;;;;5130906;27;20043;-66
2022/04/17 13:11:51;;;;;;;8.20;4.90;;;;;;;;;;5100805;27;20085;-66
2022/04/17 13:14:18;;;;;;;8.20;4.90;;;;;;;;;;5126275;27;20039;-65
2022/04/17 13:16:51;;;;;;;7.10;4.70;;;;;;;;;;5128518;27;20084;-65
2022/04/17 13:19:17;;;;;;;7.13;5.18;;;;;;;;;;5129203;27;20084;-65
2022/04/17 13:21:43;;;;;;;7.18;5.22;;;;;;;;;;5127273;27;20050;-64
2022/04/17 13:24:15;;;;;;;7.07;4.97;;;;;;;;;;5123298;27;20373;-63
2022/04/17 13:26:42;;;;;;;8.80;5.80;;;;;;;;;;5130008;27;20047;-63
2022/04/17 13:29:08;;;;;;;7.05;5.13;;;;;;;;;;5128669;27;20124;-64
2022/04/17 13:31:35;;;;;;;6.90;5.00;;;;;;;;;;5123342;27;20480;-64
2022/04/17 13:34:01;;;;;;;9.70;5.65;;;;;;;;;;5125722;27;20506;-64
2022/04/17 13:36:27;;;;;;;9.65;6.03;;;;;;;;;;5121441;28;20159;-65
2022/04/17 13:38:53;;;;;;;10.32;6.68;;;;;;;;;;5126568;27;20067;-65
2022/04/17 13:41:19;;;;;;;9.05;6.18;;;;;;;;;;5123980;27;20093;-66
2022/04/17 13:43:45;;;;;;;8.93;6.45;;;;;;;;;;5123557;27;20088;-65
2022/04/17 13:46:11;;;;;;;8.32;5.72;;;;;;;;;;5123565;27;20044;-65
2022/04/17 13:48:38;;;;;;;8.43;6.03;;;;;;;;;;5124963;27;20082;-65
2022/04/17 13:51:07;;;;;;;9.60;6.43;;;;;;;;;;5126148;27;20099;-66
2022/04/17 13:53:33;;;;;;;9.70;6.03;;;;;;;;;;5125070;27;20027;-65
2022/04/17 13:55:59;;;;;;;8.40;5.45;;;;;;;;;;5129266;27;20039;-65
2022/04/17 13:58:26;;;;;;;7.32;5.22;;;;;;;;;;5122735;27;20511;-65
2022/04/17 14:00:53;;;;;;;6.00;4.60;;;;;;;;;;5128145;27;20054;-65
2022/04/17 14:03:19;;;;;;;6.38;4.28;;;;;;;;;;5126013;27;20035;-65
2022/04/17 14:05:47;;;;;;;7.80;4.68;;;;;;;;;;5131104;27;20042;-64
2022/04/17 14:08:13;;;;;;;8.65;5.32;;;;;;;;;;5132619;27;20400;-64
2022/04/17 14:10:39;;;;;;;7.88;5.35;;;;;;;;;;5132594;27;20046;-64
2022/04/17 14:13:08;;;;;;;7.45;4.22;;;;;;;;;;5130823;27;20027;-65
2022/04/17 14:15:34;;;;;;;7.28;4.07;;;;;;;;;;5126941;27;20055;-64
2022/04/17 14:18:00;;;;;;;5.68;3.95;;;;;;;;;;5129432;27;20097;-65
2022/04/17 14:20:26;;;;;;;7.22;4.50;;;;;;;;;;5134447;27;20054;-65
2022/04/17 14:22:52;;;;;;;6.93;4.40;;;;;;;;;;5124835;27;20046;-65
2022/04/17 14:25:18;;;;;;;6.35;4.20;;;;;;;;;;5135538;27;20123;-65
2022/04/17 14:27:45;;;;;;;6.38;4.18;;;;;;;;;;5129067;27;20043;-65
2022/04/17 14:30:11;;;;;;;6.20;4.03;;;;;;;;;;5129649;27;20035;-65
2022/04/17 14:32:37;;;;;;;5.82;3.95;;;;;;;;;;5126787;27;20031;-65
2022/04/17 14:35:03;;;;;;;5.90;3.83;;;;;;;;;;5129871;27;20134;-65
2022/04/17 14:37:29;;;;;;;7.55;4.10;;;;;;;;;;5127872;27;20035;-65
2022/04/17 14:39:55;;;;;;;7.22;3.70;;;;;;;;;;5123046;27;20035;-65
2022/04/17 14:42:21;;;;;;;7.05;4.20;;;;;;;;;;5129544;27;20039;-66
2022/04/17 14:44:47;;;;;;;4.57;3.80;;;;;;;;;;5121825;27;20031;-66
2022/04/17 14:47:13;;;;;;;5.53;3.78;;;;;;;;;;5130686;27;20122;-66
2022/04/17 14:49:40;;;;;;;5.45;3.65;;;;;;;;;;5130937;27;20046;-65
2022/04/17 14:52:06;;;;;;;4.97;3.55;;;;;;;;;;5131053;27;20047;-66